Motte Rimrock Reserve, California Weather observations

Data are for 10 minute period ending at time listed.
 Day   Time   Solar   Ave.   Ave.  Ave.  Vector  Max.   Baro.   Total    
  of    of     Rad.   Air    Rel.  Wind   Wind   Wind  Press.  Precip.   
Year   Day            Temp.  Hum.  Speed  Dir.   Gust                    
2015   (PST)  Kw/m2    F      %     mph   deg.    mph    mb.     in.     
-------------------------------------------------------------------------
  85    4:30   0.00   59.5    33    7.9    50     9.2   950.9    0.00 
  85    4:40   0.00   61.9    28    5.9    49     8.1   950.9    0.00 
  85    4:50   0.00   63.0    26    4.5    66     5.9   951.0    0.00 
  85    5:00   0.00   64.6    23    4.2    62     5.1   951.0    0.00 
  85    5:10   0.00   64.6    23    3.9    54     5.8   951.1    0.00 
  85    5:20   0.00   62.6    25    1.5    49     3.6   951.2    0.00 
  85    5:30   0.00   63.5    24    3.0    58     5.0   951.3    0.00 
  85    5:40   0.00   63.5    24    4.0    71     6.9   951.3    0.00 
  85    5:50   0.00   64.9    21    1.9    79     3.4   951.4    0.00 
  85    6:00   0.00   63.4    24    0.6   119     2.9   951.4    0.00 
  85    6:10   0.02   64.8    22    3.4   100     7.1   951.5    0.00 
  85    6:20   0.06   64.9    23    4.4    81     6.6   951.6    0.00 
  85    6:30   0.08   64.7    24    5.1    80     6.9   951.8    0.00 
  85    6:40   0.12   64.6    24    4.1    71     5.3   952.0    0.00 
  85    6:50   0.15   65.1    24    4.0    47     5.6   952.0    0.00 
  85    7:00   0.19   66.4    23    2.6    52     4.9   952.1    0.00 
  85    7:10   0.23   67.6    22    1.3    99     2.7   952.3    0.00 
  85    7:20   0.27   68.5    22    0.8   298     1.8   952.3    0.00 
  85    7:30   0.30   69.0    20    2.3    40     4.2   952.5    0.00 
  85    7:40   0.34   70.2    18    2.4    73     4.1   952.6    0.00 
  85    7:50   0.38   70.5    18    2.8    82     6.1   952.7    0.00 
  85    8:00   0.42   70.8    18    3.8    81     5.9   952.8    0.00 
  85    8:10   0.46   71.1    19    4.0    91     7.2   952.9    0.00 
  85    8:20   0.49   71.2    18    5.0    71     8.3   953.0    0.00 
  85    8:30   0.53   71.7    18    5.6    64     8.5   953.0    0.00 
  85    8:40   0.56   72.8    18    5.9    71     8.9   953.0    0.00 
  85    8:50   0.59   73.2    18    6.1    67     9.0   953.0    0.00 
  85    9:00   0.62   74.4    17    6.6    69    10.4   953.1    0.00 
  85    9:10   0.66   76.3    15    7.4    59    11.1   953.1    0.00 
  85    9:20   0.68   77.3    15    8.4    55    12.3   953.0    0.00 
  85    9:30   0.71   77.9    14    8.9    45    13.5   952.9    0.00 
  85    9:40   0.74   78.9    14    8.8    55    14.9   952.8    0.00 
  85    9:50   0.76   80.1    13   10.7    60    20.7   952.7    0.00 
  85   10:00   0.79   80.4    12   12.1    69    17.2   952.6    0.00 
  85   10:10   0.81   81.1    12    8.7    65    13.2   952.5    0.00 
  85   10:20   0.83   81.4    12   11.0    66    20.1   952.4    0.00 
  85   10:30   0.85   80.4    13    8.4    98    13.0   952.4    0.00 
  85   10:40   0.86   81.3    12    8.5   102    14.5   952.4    0.00 
  85   10:50   0.88   81.8    12    8.2    80    12.8   952.3    0.00 
  85   11:00   0.89   81.1    12    7.4    83    16.1   952.2    0.00 
  85   11:10   0.90   82.4    12    8.8   111    12.9   952.1    0.00 
  85   11:20   0.91   82.6    11    8.2    94    16.4   951.9    0.00 
  85   11:30   0.92   83.6    11    7.5   107    15.8   951.8    0.00 
  85   11:40   0.92   83.9    11    7.9    92    14.4   951.7    0.00 
  85   11:50   0.93   83.5    11   10.4    79    18.0   951.6    0.00 
  85   12:00   0.93   84.4    11    9.8    68    16.4   951.5    0.00 
  85   12:10   0.93   85.0    10   11.4    60    18.9   951.3    0.00 
  85   12:20   0.93   85.4    10   10.2    30    17.5   951.2    0.00 
  85   12:30   0.92   85.0    10    8.7    44    17.3   951.1    0.00 
  85   12:40   0.92   85.6    10    6.3    12    15.3   950.9    0.00 
  85   12:50   0.91   85.9    10   10.6     4    17.4   950.7    0.00 
  85   13:00   0.90   86.5    10    7.9    33    15.9   950.6    0.00 
  85   13:10   0.89   86.5    10    9.1    23    13.8   950.4    0.00 
  85   13:20   0.87   85.9    10    8.3    46    15.6   950.3    0.00 
  85   13:30   0.86   86.1    10    7.7    47    13.3   950.1    0.00 
  85   13:40   0.81   85.9    10    7.1    28    14.9   950.0    0.00 
  85   13:50   0.82   86.0    10    5.7    49    15.0   949.9    0.00 
  85   14:00   0.80   85.6    10    4.8    73    10.5   949.8    0.00 
  85   14:10   0.77   86.8    10    7.2    19    12.4   949.7    0.00 
  85   14:20   0.75   86.1    10    5.0   355    10.9   949.6    0.00 
  85   14:30   0.72   86.0    10    2.7    46     7.7   949.6    0.00 
  85   14:40   0.69   85.9    10    2.8   350     8.8   949.4    0.00 
  85   14:50   0.67   86.1    10    6.4   328    12.1   949.4    0.00 
  85   15:00   0.64   87.1    10    3.6    50     8.7   949.3    0.00 
  85   15:10   0.60   86.3    10    5.2    15    12.6   949.3    0.00 
  85   15:20   0.57   86.8    10    6.4   324    14.0   949.3    0.00 
  85   15:30   0.54   86.5    10    8.9   344    15.3   949.2    0.00 
  85   15:40   0.50   86.1    10    7.2   328    12.4   949.2    0.00 
  85   15:50   0.47   85.6    10    6.3   277    10.9   949.0    0.00 
  85   16:00   0.43   86.4    10    5.5   325    11.2   949.1    0.00 
  85   16:10   0.40   85.9    10    5.1   319    11.5   949.0    0.00 
  85   16:20   0.36   86.2    10    6.6   340    12.5   949.0    0.00 
  85   16:30   0.32   86.0    11    4.8   321    10.4   949.0    0.00 
  85   16:40   0.28   86.0    11    6.6   308    10.2   949.0    0.00 
  85   16:50   0.24   85.8    11    8.3   348    12.1   949.0    0.00 
  85   17:00   0.20   85.4    11    6.6   334    10.0   949.1    0.00 
  85   17:10   0.17   85.0    11    8.6   307    12.2   949.0    0.00 
  85   17:20   0.14   84.6    11   10.4   316    14.2   949.1    0.00 
  85   17:30   0.10   84.1    11   10.4   318    13.7   949.1    0.00 
  85   17:40   0.07   83.7    11    9.0   328    12.1   949.2    0.00 
  85   17:50   0.05   82.8    12    8.2   332    10.7   949.3    0.00 
  85   18:00   0.02   82.1    12    7.5   336    10.6   949.4    0.00 
  85   18:10   0.01   81.1    12    8.6   341    10.3   949.5    0.00 
  85   18:20   0.01   79.9    13    6.9     3     9.9   949.6    0.00 
  85   18:30   0.01   78.6    13    7.3   343    12.4   949.9    0.00 
  85   18:40   0.00   78.6    16    9.5   314    13.4   950.2    0.00 
  85   18:50   0.00   77.3    17    8.4   318    11.2   950.3    0.00 
  85   19:00   0.00   76.0    19    7.6   315    10.0   950.5    0.00 
  85   19:10   0.00   75.7    19    8.7   309    10.7   950.5    0.00 
  85   19:20   0.00   75.8    19    8.3   311    11.0   950.7    0.00 
  85   19:30   0.00   74.8    20    8.8   313    13.0   950.8    0.00 
  85   19:40   0.00   75.7    20   10.4   303    13.7   950.9    0.00 
  85   19:50   0.00   75.8    20   10.8   304    13.6   951.0    0.00 
  85   20:00   0.00   75.5    20   12.4   307    14.7   951.1    0.00 
  85   20:10   0.00   74.7    20   13.1   306    16.0   951.1    0.00 
  85   20:20   0.00   74.5    20   12.7   302    15.7   951.3    0.00 
  85   20:30   0.00   73.7    20   12.4   302    15.1   951.3    0.00 
  85   20:40   0.00   73.5    19   12.9   307    15.1   951.4    0.00 
  85   20:50   0.00   72.8    20   12.2   308    15.4   951.5    0.00 
  85   21:00   0.00   73.3    19   12.8   305    14.8   951.5    0.00 
  85   21:10   0.00   72.5    19   11.7   312    14.8   951.6    0.00 
  85   21:20   0.00   70.7    21   10.8   313    12.5   951.7    0.00 
  85   21:30   0.00   70.1    21   10.5   316    11.2   951.6    0.00 
  85   21:40   0.00   70.8    20    9.0   328    10.4   951.7    0.00 
  85   21:50   0.00   71.8    20    8.3   333     9.6   951.7    0.00 
  85   22:00   0.00   71.2    20    7.8   332     8.8   951.7    0.00 
  85   22:10   0.00   70.4    21    7.9   328     8.8   951.7    0.00 
  85   22:20   0.00   68.9    22    8.8   311     9.7   951.7    0.00 
  85   22:30   0.00   67.6    23    4.8   170     8.0   951.7    0.00 
  85   22:40   0.00   68.1    22    0.8    82     3.1   951.7    0.00 
  85   22:50   0.00   69.3    21    0.9   193     1.8   951.7    0.00 
  85   23:00   0.00   70.0    21    1.7   140     2.2   951.7    0.00 
  85   23:10   0.00   71.0    20    2.1   174     3.7   951.6    0.00 
  85   23:20   0.00   70.9    19    1.2   220     3.2   951.5    0.00 
  85   23:30   0.00   70.9    19    1.2   224     2.4   951.5    0.00 
  85   23:40   0.00   71.0    19    1.4   214     2.3   951.4    0.00 
  85   23:50   0.00   71.2    18    0.8   210     1.2   951.4    0.00 
  86    0:00   0.00   70.9    19    1.0   149     3.1   951.3    0.00 
  86    0:10   0.00   70.7    21    1.8   125     3.1   951.3    0.00 
  86    0:20   0.00   70.8    21    1.5   166     2.9   951.3    0.00 
  86    0:30   0.00   70.2    20    1.8    89     5.4   951.3    0.00 
  86    0:40   0.00   68.8    23    4.2    80     5.0   951.3    0.00 
  86    0:50   0.00   68.8    23    3.6    71     5.1   951.3    0.00 
  86    1:00   0.00   69.3    22    4.7    56     5.2   951.3    0.00 
  86    1:10   0.00   69.2    20    4.1    62     5.1   951.4    0.00 
  86    1:20   0.00   69.7    20    3.5    61     4.2   951.3    0.00 
  86    1:30   0.00   69.8    20    3.8    76     4.3   951.3    0.00 
  86    1:40   0.00   69.3    20    3.5    99     4.7   951.2    0.00 
  86    1:50   0.00   67.1    23    2.2   161     3.9   951.2    0.00 
  86    2:00   0.00   64.9    25    3.0   150     4.3   951.2    0.00 
  86    2:10   0.00   63.8    26    2.6   139     4.3   951.1    0.00 
  86    2:20   0.00   64.0    26    0.8   112     3.0   951.1    0.00 
  86    2:30   0.00   64.9    24    4.4   108     6.1   951.0    0.00 
  86    2:40   0.00   65.9    22    5.7    90     7.3   950.9    0.00 
  86    2:50   0.00   66.0    22    4.7    62     5.5   950.8    0.00 
  86    3:00   0.00   66.9    22    4.1    63     5.0   950.7    0.00 
  86    3:10   0.00   67.3    21    4.3    81     4.7   950.7    0.00 
  86    3:20   0.00   67.4    21    3.7    73     4.9   950.7    0.00 
  86    3:30   0.00   66.1    22    4.1    89     6.3   950.8    0.00 
  86    3:40   0.00   66.7    22    4.5   125     5.3   950.8    0.00 
  86    3:50   0.00   65.0    23    3.0   137     5.1   950.7    0.00 
  86    4:00   0.00   64.4    24    1.4   190     3.7   950.8    0.00 
  86    4:10   0.00   64.5    24    1.4   171     2.2   950.7    0.00 
  86    4:20   0.00   64.6    24    1.2   178     2.3   950.7    0.00 

Return to Motte Rimrock Reserve graphs page.


Western Regional Climate Center,wrcc@dri.edu